IDBO2: Little River, Idabel, OK

Data processed at Thu Jan 04 2018 23:32


All information presented herein is the property of the government of the United States of America and may be revised or deleted at any time without prior notice.
Dissemination of this information without the expressed written consent of the Public Affairs Office, Tulsa District U.S. Army Corps of Engineers is strictly prohibited.
These data are gathered electronically and, as presented, have not undergone any form of quality control. These data are not guaranteed to be valid or correct.
Go to home page.
Go to station list.

Upstream stations:

Downstream station:
Previous Day
Next Day
Current Day
    
SHEF ID:       IDBO2     Little River blw Lukfata Creek
STATION TYPE:  

               PRECIP     STAGE  RIV-FLOW  BAT-LOAD
                   in        ft       cfs      volt
              Ccp-Rev   Ccp-Rev   Ccp-Rev   Ccp-Rev
(US/Central)
01/02 00:00      ----      5.52       169     12.30
01/02 01:00      ----      5.51       167     12.30
01/02 02:00      ----      5.51       167     12.30
01/02 03:00      ----      5.51       167     12.24
01/02 04:00      ----      5.51       167     12.24
01/02 05:00      ----      5.50       165     12.24
01/02 06:00      ----      5.50       165     12.24
01/02 07:00      ----      5.50       165     12.24
01/02 08:00      ----      5.50       165     12.24
01/02 09:00      ----      5.49       163     12.24
01/02 10:00      ----      5.42       148     12.24
01/02 11:00      ----      5.44       152     12.24
01/02 12:00      ----      5.42       148     12.30
01/02 13:00      ----      5.48       160     12.30
01/02 14:00      ----      5.47       158     12.30
01/02 15:00      ----      5.46       156     12.30
01/02 16:00      ----      5.46       156     12.30
01/02 17:00      ----      5.46       156     12.30
01/02 18:00      ----      5.45       154     12.30
01/02 19:00      ----      5.45       154     12.30
01/02 20:00      ----      5.45       154     12.30
01/02 21:00      ----      5.44       152     12.30
01/02 22:00      ----      5.44       152     12.24
01/02 23:00      ----      5.43       150     12.30